Capetan Vassilis — C6S2085 — position and weather

sailwx.info

Track history (hours):
 
Tides and Currents Weather Stations Pressure Air Temp Water Temp Dewpoint Dewpoint Depression Visibility Wind Speed Wind Dir Waves Ship Positions

Capetan Vassilis

Last reported at 2016-May-31 21:31 UTC. Time now 2016-May-31 21:47 UTC.
Position N 51°03' E 002°19'.

Length 191 m; draft 10.2 m.

MMSI: 311552000.

Date/timePositionNaut miles runAvg speedWind from/ knotsBaromVisibWave heightAir tempDewpointWater temp
2016-May-31 21:31N 51°03' E 002°19'0 0.0
2016-May-31 20:31N 51°03' E 002°19'0 0.0
2016-May-31 17:31N 51°03' E 002°19'0 0.0
2016-May-31 16:28N 51°03' E 002°19'0 0.0
2016-May-31 15:28N 51°03' E 002°19'0 0.0
2016-May-31 14:22N 51°03' E 002°19'0 0.0
2016-May-31 13:28N 51°03' E 002°19'0 0.0
2016-May-31 12:28N 51°03' E 002°19'0 0.0
2016-May-31 11:28N 51°03' E 002°19'0 0.0
2016-May-31 10:28N 51°03' E 002°19'0 0.0
2016-May-31 09:31N 51°03' E 002°19'0 0.0
2016-May-31 08:31N 51°03' E 002°19'0 0.0
2016-May-31 07:10N 51°03' E 002°19'0 0.0
2016-May-31 06:19N 51°03' E 002°19'0 0.0
2016-May-31 04:31N 51°03' E 002°19'0 0.0
2016-May-31 03:31N 51°03' E 002°19'0 0.0
2016-May-31 02:31N 51°03' E 002°19'0 0.0
2016-May-31 01:25N 51°03' E 002°19'0 0.0
2016-May-31 00:31N 51°03' E 002°19'0 0.0
2016-May-30 23:31N 51°03' E 002°19'0 0.0
2016-May-30 22:34N 51°03' E 002°19'0 0.0
2016-May-30 21:06N 51°03' E 002°19'0 0.0
2016-May-30 20:18N 51°03' E 002°19'0 0.0
2016-May-30 19:18N 51°03' E 002°19'0 0.0
2016-May-30 18:30N 51°03' E 002°19'0 0.0
2016-May-30 17:12N 51°03' E 002°19'0 0.0
2016-May-30 15:33N 51°03' E 002°19'0 0.0
2016-May-30 14:28N 51°03' E 002°19'0 0.0
2016-May-30 13:30N 51°03' E 002°19'0 0.0
2016-May-30 12:33N 51°03' E 002°19'0 0.0
2016-May-30 11:27N 51°03' E 002°19'0 0.0
2016-May-30 10:24N 51°03' E 002°19'0 0.0
2016-May-30 09:18N 51°03' E 002°19'0 0.0
2016-May-30 08:33N 51°03' E 002°19'0 0.0
2016-May-30 06:30N 51°03' E 002°19'0 0.0
2016-May-30 05:27N 51°03' E 002°19'0 0.0
2016-May-30 04:30N 51°03' E 002°19'0 0.0
2016-May-30 03:30N 51°03' E 002°19'0 0.0
2016-May-30 02:30N 51°03' E 002°19'0 0.0
2016-May-30 01:18N 51°03' E 002°19'0 0.0
2016-May-30 00:33N 51°03' E 002°19'0 0.0
2016-May-29 23:33N 51°03' E 002°19'0 0.0
2016-May-29 22:33N 51°03' E 002°19'0 0.0
2016-May-29 21:33N 51°03' E 002°19'0 0.0
2016-May-29 19:33N 51°03' E 002°19'0 0.0
2016-May-29 18:33N 51°03' E 002°19'0 0.0
2016-May-29 17:27N 51°03' E 002°19'0 0.0
2016-May-29 16:12N 51°03' E 002°19'0 0.0
2016-May-29 15:33N 51°03' E 002°19'0 0.0
2016-May-29 14:24N 51°03' E 002°19'0 0.0
2016-May-29 13:33N 51°03' E 002°19'0 0.0
2016-May-29 12:29N 51°03' E 002°19'0 0.0
2016-May-29 11:32N 51°03' E 002°19'0 0.0
2016-May-29 10:32N 51°03' E 002°19'0 0.0
2016-May-29 09:23N 51°03' E 002°19'0 0.0
2016-May-29 08:32N 51°03' E 002°19'0 0.0
2016-May-29 07:29N 51°03' E 002°19'0 0.0
2016-May-29 06:32N 51°03' E 002°19'0 0.0
2016-May-29 05:32N 51°03' E 002°19'0 0.0
2016-May-29 04:32N 51°03' E 002°19'0 0.0
2016-May-29 03:32N 51°03' E 002°19'0 0.0
2016-May-29 02:32N 51°03' E 002°19'0 0.0
2016-May-29 01:32N 51°03' E 002°19'0 0.0
2016-May-29 00:32N 51°03' E 002°19'0 0.0
2016-May-28 23:32N 51°03' E 002°19'0 0.0
2016-May-28 22:32N 51°03' E 002°19'0 0.0
2016-May-28 21:32N 51°03' E 002°19'0 0.0
2016-May-28 20:23N 51°03' E 002°19'0 0.0
2016-May-28 19:32N 51°03' E 002°19'0 0.0
2016-May-28 18:32N 51°03' E 002°19'0 0.0
2016-May-28 17:32N 51°03' E 002°19'0 0.0
2016-May-28 16:32N 51°03' E 002°19'0 0.0
2016-May-28 15:32N 51°03' E 002°19'0 0.0
2016-May-28 14:33N 51°03' E 002°19'1 0.8
2016-May-28 13:34N 51°03' E 002°21'1 1.4
2016-May-28 12:33N 51°04' E 002°18'8 8.2
2016-May-28 11:33N 51°03' E 002°05'9 8.8
2016-May-28 10:33N 51°02' E 001°52'6 6.0
2016-May-28 09:33N 51°01' E 001°42'7 7.1
2016-May-28 08:33N 50°57' E 001°33'6 6.2
2016-May-28 07:33N 50°51' E 001°28'4910.9
2016-May-28 03:03N 50°24' E 000°24'612.1
2016-May-28 02:33N 50°22' E 000°15'1312.7
2016-May-28 01:33N 50°19' W 000°04'1513.8
2016-May-28 00:26N 50°15' W 000°27'1314.4
2016-May-27 23:33N 50°11' W 000°46'3114.1
2016-May-27 21:20N 50°03' W 001°33'1012.8
2016-May-27 20:33N 50°00' W 001°48'1211.7
2016-May-27 19:33N 49°57' W 002°06'1210.5
2016-May-27 18:24N 49°54' W 002°24'9 9.9
2016-May-27 17:30N 49°51' W 002°37'1010.1
2016-May-27 16:33N 49°48' W 002°51'1210.5
2016-May-27 15:25N 49°43' W 003°08'910.2
2016-May-27 14:33N 49°39' W 003°20'1111.2
2016-May-27 13:33N 49°33' W 003°35'5412.7
2016-May-27 09:20N 49°05' W 004°45'1213.7
2016-May-27 08:28N 48°59' W 005°00'1314.1
2016-May-27 07:33N 48°52' W 005°17'1414.1
2016-May-27 06:34N 48°45' W 005°35'1414.1
2016-May-27 05:33N 48°32' W 005°46'58512.1
2016-May-25 05:22N 39°15' W 009°51'1012.4
2016-May-25 04:33N 39°05' W 009°52'1312.8
2016-May-25 03:33N 38°52' W 009°52'1312.6
2016-May-25 02:33N 38°39' W 009°51'1212.1
2016-May-25 01:33N 38°28' W 009°47'1312.3
2016-May-25 00:32N 38°15' W 009°43'1212.3
2016-May-24 23:32N 38°03' W 009°39'1212.5
2016-May-24 22:33N 37°51' W 009°36'1312.5
2016-May-24 21:32N 37°39' W 009°32'7911.0
2016-May-24 14:20N 36°36' W 008°33'1012.3
2016-May-24 13:33N 36°33' W 008°22'3912.3
2016-May-24 10:25N 36°20' W 007°36'1412.3
2016-May-24 09:18N 36°16' W 007°20'1012.4
2016-May-24 08:29N 36°13' W 007°08'7512.3
2016-May-24 02:21N 35°58' W 005°37'911.9
2016-May-24 01:33N 36°00' W 005°25'1110.8
2016-May-24 00:32N 36°02' W 005°12'33912.5
2016-May-22 21:32N 36°53' E 001°44'1111.6
2016-May-22 20:33N 36°54' E 001°59'1312.5
2016-May-22 19:33N 36°56' E 002°14'1212.4
2016-May-22 18:33N 36°58' E 002°29'1212.3
2016-May-22 17:33N 36°60' E 002°45'1512.3
2016-May-22 16:21N 37°02' E 003°03'1012.4
2016-May-22 15:33N 37°03' E 003°15'1312.5
2016-May-22 14:33N 37°05' E 003°31'1212.5
2016-May-22 13:33N 37°07' E 003°46'1212.2
2016-May-22 12:33N 37°08' E 004°01'1212.1
2016-May-22 11:33N 37°10' E 004°16'1211.8
2016-May-22 10:33N 37°12' E 004°31'1212.0
2016-May-22 09:33N 37°14' E 004°46'1812.7
2016-May-22 08:08N 37°16' E 005°08'712.5
2016-May-22 07:33N 37°17' E 005°17'1512.4
2016-May-22 06:21N 37°20' E 005°36'1212.9
2016-May-22 05:25N 37°21' E 005°51'1512.8
2016-May-22 04:13N 37°24' E 006°10'  
Track history (hours):
 
Tides and Currents Weather Stations Pressure Air Temp Water Temp Dewpoint Dewpoint Depression Visibility Wind Speed Wind Dir Waves Ship Positions

Capetan Vassilis

Last reported at 2016-May-31 21:31 UTC. Time now 2016-May-31 21:47 UTC.
Position N 51°03' E 002°19'.

Length 191 m; draft 10.2 m.

MMSI: 311552000.

Date/timePositionNaut miles runAvg speedWind from/ knotsBaromVisibWave heightAir tempDewpointWater temp
2016-May-31 21:31N 51°03' E 002°19'0 0.0
2016-May-31 20:31N 51°03' E 002°19'0 0.0
2016-May-31 17:31N 51°03' E 002°19'0 0.0
2016-May-31 16:28N 51°03' E 002°19'0 0.0
2016-May-31 15:28N 51°03' E 002°19'0 0.0
2016-May-31 14:22N 51°03' E 002°19'0 0.0
2016-May-31 13:28N 51°03' E 002°19'0 0.0
2016-May-31 12:28N 51°03' E 002°19'0 0.0
2016-May-31 11:28N 51°03' E 002°19'0 0.0
2016-May-31 10:28N 51°03' E 002°19'0 0.0
2016-May-31 09:31N 51°03' E 002°19'0 0.0
2016-May-31 08:31N 51°03' E 002°19'0 0.0
2016-May-31 07:10N 51°03' E 002°19'0 0.0
2016-May-31 06:19N 51°03' E 002°19'0 0.0
2016-May-31 04:31N 51°03' E 002°19'0 0.0
2016-May-31 03:31N 51°03' E 002°19'0 0.0
2016-May-31 02:31N 51°03' E 002°19'0 0.0
2016-May-31 01:25N 51°03' E 002°19'0 0.0
2016-May-31 00:31N 51°03' E 002°19'0 0.0
2016-May-30 23:31N 51°03' E 002°19'0 0.0
2016-May-30 22:34N 51°03' E 002°19'0 0.0
2016-May-30 21:06N 51°03' E 002°19'0 0.0
2016-May-30 20:18N 51°03' E 002°19'0 0.0
2016-May-30 19:18N 51°03' E 002°19'0 0.0
2016-May-30 18:30N 51°03' E 002°19'0 0.0
2016-May-30 17:12N 51°03' E 002°19'0 0.0
2016-May-30 15:33N 51°03' E 002°19'0 0.0
2016-May-30 14:28N 51°03' E 002°19'0 0.0
2016-May-30 13:30N 51°03' E 002°19'0 0.0
2016-May-30 12:33N 51°03' E 002°19'0 0.0
2016-May-30 11:27N 51°03' E 002°19'0 0.0
2016-May-30 10:24N 51°03' E 002°19'0 0.0
2016-May-30 09:18N 51°03' E 002°19'0 0.0
2016-May-30 08:33N 51°03' E 002°19'0 0.0
2016-May-30 06:30N 51°03' E 002°19'0 0.0
2016-May-30 05:27N 51°03' E 002°19'0 0.0
2016-May-30 04:30N 51°03' E 002°19'0 0.0
2016-May-30 03:30N 51°03' E 002°19'0 0.0
2016-May-30 02:30N 51°03' E 002°19'0 0.0
2016-May-30 01:18N 51°03' E 002°19'0 0.0
2016-May-30 00:33N 51°03' E 002°19'0 0.0
2016-May-29 23:33N 51°03' E 002°19'0 0.0
2016-May-29 22:33N 51°03' E 002°19'0 0.0
2016-May-29 21:33N 51°03' E 002°19'0 0.0
2016-May-29 19:33N 51°03' E 002°19'0 0.0
2016-May-29 18:33N 51°03' E 002°19'0 0.0
2016-May-29 17:27N 51°03' E 002°19'0 0.0
2016-May-29 16:12N 51°03' E 002°19'0 0.0
2016-May-29 15:33N 51°03' E 002°19'0 0.0
2016-May-29 14:24N 51°03' E 002°19'0 0.0
2016-May-29 13:33N 51°03' E 002°19'0 0.0
2016-May-29 12:29N 51°03' E 002°19'0 0.0
2016-May-29 11:32N 51°03' E 002°19'0 0.0
2016-May-29 10:32N 51°03' E 002°19'0 0.0
2016-May-29 09:23N 51°03' E 002°19'0 0.0
2016-May-29 08:32N 51°03' E 002°19'0 0.0
2016-May-29 07:29N 51°03' E 002°19'0 0.0
2016-May-29 06:32N 51°03' E 002°19'0 0.0
2016-May-29 05:32N 51°03' E 002°19'0 0.0
2016-May-29 04:32N 51°03' E 002°19'0 0.0
2016-May-29 03:32N 51°03' E 002°19'0 0.0
2016-May-29 02:32N 51°03' E 002°19'0 0.0
2016-May-29 01:32N 51°03' E 002°19'0 0.0
2016-May-29 00:32N 51°03' E 002°19'0 0.0
2016-May-28 23:32N 51°03' E 002°19'0 0.0
2016-May-28 22:32N 51°03' E 002°19'0 0.0
2016-May-28 21:32N 51°03' E 002°19'0 0.0
2016-May-28 20:23N 51°03' E 002°19'0 0.0
2016-May-28 19:32N 51°03' E 002°19'0 0.0
2016-May-28 18:32N 51°03' E 002°19'0 0.0
2016-May-28 17:32N 51°03' E 002°19'0 0.0
2016-May-28 16:32N 51°03' E 002°19'0 0.0
2016-May-28 15:32N 51°03' E 002°19'0 0.0
2016-May-28 14:33N 51°03' E 002°19'1 0.8
2016-May-28 13:34N 51°03' E 002°21'1 1.4
2016-May-28 12:33N 51°04' E 002°18'8 8.2
2016-May-28 11:33N 51°03' E 002°05'9 8.8
2016-May-28 10:33N 51°02' E 001°52'6 6.0
2016-May-28 09:33N 51°01' E 001°42'7 7.1
2016-May-28 08:33N 50°57' E 001°33'6 6.2
2016-May-28 07:33N 50°51' E 001°28'4910.9
2016-May-28 03:03N 50°24' E 000°24'612.1
2016-May-28 02:33N 50°22' E 000°15'1312.7
2016-May-28 01:33N 50°19' W 000°04'1513.8
2016-May-28 00:26N 50°15' W 000°27'1314.4
2016-May-27 23:33N 50°11' W 000°46'3114.1
2016-May-27 21:20N 50°03' W 001°33'1012.8
2016-May-27 20:33N 50°00' W 001°48'1211.7
2016-May-27 19:33N 49°57' W 002°06'1210.5
2016-May-27 18:24N 49°54' W 002°24'9 9.9
2016-May-27 17:30N 49°51' W 002°37'1010.1
2016-May-27 16:33N 49°48' W 002°51'1210.5
2016-May-27 15:25N 49°43' W 003°08'910.2
2016-May-27 14:33N 49°39' W 003°20'1111.2
2016-May-27 13:33N 49°33' W 003°35'5412.7
2016-May-27 09:20N 49°05' W 004°45'1213.7
2016-May-27 08:28N 48°59' W 005°00'1314.1
2016-May-27 07:33N 48°52' W 005°17'1414.1
2016-May-27 06:34N 48°45' W 005°35'1414.1
2016-May-27 05:33N 48°32' W 005°46'58512.1
2016-May-25 05:22N 39°15' W 009°51'1012.4
2016-May-25 04:33N 39°05' W 009°52'1312.8
2016-May-25 03:33N 38°52' W 009°52'1312.6
2016-May-25 02:33N 38°39' W 009°51'1212.1
2016-May-25 01:33N 38°28' W 009°47'1312.3
2016-May-25 00:32N 38°15' W 009°43'1212.3
2016-May-24 23:32N 38°03' W 009°39'1212.5
2016-May-24 22:33N 37°51' W 009°36'1312.5
2016-May-24 21:32N 37°39' W 009°32'7911.0
2016-May-24 14:20N 36°36' W 008°33'1012.3
2016-May-24 13:33N 36°33' W 008°22'3912.3
2016-May-24 10:25N 36°20' W 007°36'1412.3
2016-May-24 09:18N 36°16' W 007°20'1012.4
2016-May-24 08:29N 36°13' W 007°08'7512.3
2016-May-24 02:21N 35°58' W 005°37'911.9
2016-May-24 01:33N 36°00' W 005°25'1110.8
2016-May-24 00:32N 36°02' W 005°12'33912.5
2016-May-22 21:32N 36°53' E 001°44'1111.6
2016-May-22 20:33N 36°54' E 001°59'1312.5
2016-May-22 19:33N 36°56' E 002°14'1212.4
2016-May-22 18:33N 36°58' E 002°29'1212.3
2016-May-22 17:33N 36°60' E 002°45'1512.3
2016-May-22 16:21N 37°02' E 003°03'1012.4
2016-May-22 15:33N 37°03' E 003°15'1312.5
2016-May-22 14:33N 37°05' E 003°31'1212.5
2016-May-22 13:33N 37°07' E 003°46'1212.2
2016-May-22 12:33N 37°08' E 004°01'1212.1
2016-May-22 11:33N 37°10' E 004°16'1211.8
2016-May-22 10:33N 37°12' E 004°31'1212.0
2016-May-22 09:33N 37°14' E 004°46'1812.7
2016-May-22 08:08N 37°16' E 005°08'712.5
2016-May-22 07:33N 37°17' E 005°17'1512.4
2016-May-22 06:21N 37°20' E 005°36'1212.9
2016-May-22 05:25N 37°21' E 005°51'1512.8
2016-May-22 04:13N 37°24' E 006°10'  

Dump ship's entire track history